EGYM METAR and TAF | Updated Today

EGYM METAR

RAF Marham

Observation time: 67 min. ago

EGYM 251750Z 27014KT 9999 FEW045 BKN080 18/09 Q1011 BLU

Need help? Read our tutorial on how to read METARs or read the parsed version below.

RAF Marham (EGYM) METAR

  • Weather conditions on Wed, 25 May 2022 17:50:00 +0000 (67 min. ago):
  • Present conditions: Dry
  • Clouds: A few at 1372 meters; broken sky at 2438 meters
  • Visibility: Greater than 10 km
  • Wind: 270 degrees at 14 knots
  • Temperature: 18 celsius
  • Dew point: 9 celsius
  • Pressure: 1011 millibars
  • Remarks: None


Useful to know...

EGYM TAF

RAF Marham

TAF EGYM 251421Z 2515/2518 22016G26KT 9999 FEW022 SCT035 BECMG 2515/2518 28012KT TEMPO 2515/2518 7000 -SHRA SCT022
Observation time: 4:36 hr. ago
Need help? Read our tutorial on how to read TAFs or read the parsed version below.

Parsed version of TAF for RAF Marham (EGYM)

  • From 25 May at 15:00 UTC, to day 25 of the month at 18:00 UTC
  • Clouds: A few at 671 meters; scattered at 1067 meters
  • Visibility: Greater than 10 km
  • Wind: 220 degrees at 16
  • Expected to arise soon, from 25 May at 15:00 UTC, to day 25 of the month at 18:00 UTC
  • Wind: 280 degrees at 12
  • Expected to arise temporarily, from 25 May at 15:00 UTC, to day 25 of the month at 18:00 UTC
  • Clouds: Scattered at 671 meters
  • Visibility: 7000 meters
  • Other: Light showers of rain